Time;durP1;ratioP1;P1;durP2;ratioP2;P2;SDS_P1;SDS_P2;PMS_P1;PMS_P2;Temp;Humidity;BMP_temperature;BMP_pressure;BME280_temperature;BME280_humidity;BME280_pressure;Samples;Min_cycle;Max_cycle;Signal;HPM_P1;HPM_P2
2021/08/15 00:01:40;;;;;;;8.63;4.85;;;18.70;88.50;;;;;;4861707;29;20113;-85
2021/08/15 00:04:07;;;;;;;10.45;5.25;;;18.70;88.10;;;;;;4861137;29;20498;-85
2021/08/15 00:06:33;;;;;;;8.98;5.32;;;18.70;88.10;;;;;;4861824;29;20062;-85
2021/08/15 00:08:59;;;;;;;10.38;5.18;;;18.60;88.00;;;;;;4861786;29;20049;-84
2021/08/15 00:11:25;;;;;;;9.15;4.93;;;18.60;88.90;;;;;;4860436;29;20102;-85
2021/08/15 00:13:50;;;;;;;11.60;5.40;;;18.60;88.10;;;;;;4861378;29;20417;-85
2021/08/15 00:16:16;;;;;;;8.68;4.90;;;18.60;88.10;;;;;;4861553;29;20053;-85
2021/08/15 00:18:42;;;;;;;10.45;5.60;;;18.50;87.90;;;;;;4860400;29;20132;-85
2021/08/15 00:21:08;;;;;;;10.77;5.78;;;18.50;88.20;;;;;;4861093;29;20501;-85
2021/08/15 00:23:33;;;;;;;9.27;4.90;;;18.50;88.50;;;;;;4861181;29;20060;-85
2021/08/15 00:25:59;;;;;;;10.30;5.70;;;18.50;89.00;;;;;;4860131;29;20084;-85
2021/08/15 00:28:25;;;;;;;10.20;5.40;;;18.40;89.20;;;;;;4861770;29;20057;-85
2021/08/15 00:30:50;;;;;;;10.95;5.70;;;18.40;89.30;;;;;;4861225;29;20608;-85
2021/08/15 00:33:16;;;;;;;10.93;5.32;;;18.40;89.70;;;;;;4860364;29;20088;-84
2021/08/15 00:35:43;;;;;;;9.57;5.47;;;18.40;89.70;;;;;;4863044;29;20078;-85
2021/08/15 00:38:09;;;;;;;9.50;5.38;;;18.40;89.40;;;;;;4864451;29;20491;-85
2021/08/15 00:40:34;;;;;;;10.45;5.53;;;18.40;89.40;;;;;;4864184;29;20064;-85
2021/08/15 00:43:00;;;;;;;9.75;5.40;;;18.30;89.60;;;;;;4864957;29;20590;-84
2021/08/15 00:45:26;;;;;;;11.88;5.88;;;18.30;89.40;;;;;;4864130;29;20050;-85
2021/08/15 00:47:51;;;;;;;9.18;5.38;;;18.30;89.60;;;;;;4864105;29;20140;-85
2021/08/15 00:50:18;;;;;;;9.73;5.53;;;18.30;89.60;;;;;;4864331;29;20050;-85
2021/08/15 00:52:44;;;;;;;10.38;5.78;;;18.20;89.20;;;;;;4863666;29;20057;-85
2021/08/15 00:55:11;;;;;;;10.10;5.63;;;18.20;89.40;;;;;;4864686;29;20056;-85
2021/08/15 00:57:42;;;;;;;10.93;6.13;;;18.20;88.80;;;;;;4864510;29;20053;-86
2021/08/15 01:00:10;;;;;;;11.65;5.82;;;18.20;89.40;;;;;;4863218;29;20054;-85
2021/08/15 01:02:38;;;;;;;14.38;6.75;;;18.20;89.20;;;;;;4863862;29;20053;-86
2021/08/15 01:05:04;;;;;;;10.07;6.10;;;18.20;89.00;;;;;;4863768;29;20483;-85
2021/08/15 01:07:30;;;;;;;12.00;6.20;;;18.10;88.60;;;;;;4863419;29;20060;-85
2021/08/15 01:09:57;;;;;;;9.10;5.80;;;18.20;89.20;;;;;;4863872;29;20053;-85
2021/08/15 01:12:26;;;;;;;9.60;5.45;;;18.10;89.00;;;;;;4864042;29;20064;-85
2021/08/15 01:14:56;;;;;;;11.95;5.70;;;18.10;88.70;;;;;;4863264;29;20061;-85
2021/08/15 01:17:22;;;;;;;10.25;5.72;;;18.10;89.10;;;;;;4863601;29;20494;-85
2021/08/15 01:19:53;;;;;;;11.52;5.82;;;18.10;89.00;;;;;;4863288;29;20059;-86
2021/08/15 01:22:19;;;;;;;8.70;5.57;;;18.10;89.10;;;;;;4862468;29;20456;-85
2021/08/15 01:24:45;;;;;;;10.75;6.13;;;18.10;89.30;;;;;;4863281;29;20045;-86
2021/08/15 01:27:11;;;;;;;9.70;6.10;;;18.10;89.80;;;;;;4862991;29;20080;-85
2021/08/15 01:29:37;;;;;;;11.40;6.07;;;18.00;89.50;;;;;;4862667;29;20162;-85
2021/08/15 01:32:03;;;;;;;9.65;5.80;;;18.00;89.50;;;;;;4863373;29;20132;-84
2021/08/15 01:34:28;;;;;;;11.45;5.75;;;18.00;89.70;;;;;;4863184;29;20057;-85
2021/08/15 01:36:54;;;;;;;11.43;6.55;;;18.00;89.10;;;;;;4862389;29;20525;-85
2021/08/15 01:39:20;;;;;;;10.55;5.80;;;18.00;88.80;;;;;;4863019;29;20061;-86
2021/08/15 01:41:45;;;;;;;10.75;5.32;;;18.00;89.00;;;;;;4862644;29;20132;-85
2021/08/15 01:44:11;;;;;;;10.07;5.30;;;18.00;88.80;;;;;;4863580;29;20057;-85
2021/08/15 01:46:37;;;;;;;10.35;5.68;;;18.00;88.90;;;;;;4862362;29;20052;-85
2021/08/15 01:49:03;;;;;;;10.93;5.50;;;18.00;88.80;;;;;;4862101;29;20113;-85
2021/08/15 01:51:30;;;;;;;11.00;5.43;;;18.00;89.00;;;;;;4862914;29;20121;-86
2021/08/15 01:54:00;;;;;;;11.05;5.95;;;18.00;88.90;;;;;;4862983;29;20049;-85
2021/08/15 01:56:26;;;;;;;11.80;6.55;;;18.00;88.90;;;;;;4862582;29;20499;-84
2021/08/15 01:58:51;;;;;;;9.30;5.68;;;17.90;89.00;;;;;;4863496;29;20061;-85
2021/08/15 02:01:21;;;;;;;8.95;5.57;;;17.90;89.40;;;;;;4863435;29;20055;-85
2021/08/15 02:03:48;;;;;;;12.32;6.28;;;17.90;89.30;;;;;;4862827;29;20112;-85
2021/08/15 02:06:15;;;;;;;10.10;6.20;;;17.90;89.10;;;;;;4863560;29;20470;-85
2021/08/15 02:08:41;;;;;;;10.50;6.20;;;17.90;89.30;;;;;;4863272;29;20084;-85
2021/08/15 02:11:07;;;;;;;9.32;5.50;;;17.90;89.20;;;;;;4862299;29;20053;-85
2021/08/15 02:13:32;;;;;;;10.50;6.13;;;17.90;89.50;;;;;;4863564;29;20152;-86
2021/08/15 02:15:59;;;;;;;10.82;5.78;;;17.90;89.10;;;;;;4863309;29;20050;-85
2021/08/15 02:18:24;;;;;;;9.07;5.53;;;17.80;89.40;;;;;;4862895;29;20061;-85
2021/08/15 02:20:50;;;;;;;11.32;5.90;;;17.90;89.70;;;;;;4862570;29;20050;-85
2021/08/15 02:23:16;;;;;;;9.23;5.63;;;17.80;89.80;;;;;;4862940;29;20090;-85
2021/08/15 02:25:42;;;;;;;9.05;5.57;;;17.80;89.70;;;;;;4862014;29;20109;-85
2021/08/15 02:28:08;;;;;;;9.27;5.10;;;17.80;89.80;;;;;;4862606;29;20089;-84
2021/08/15 02:30:34;;;;;;;8.63;5.35;;;17.80;90.00;;;;;;4863159;29;20482;-85
2021/08/15 02:33:00;;;;;;;8.32;4.93;;;17.80;90.10;;;;;;4861622;29;20174;-84
2021/08/15 02:35:29;;;;;;;9.43;5.68;;;17.80;89.20;;;;;;4862604;29;20515;-84
2021/08/15 02:37:54;;;;;;;8.48;5.45;;;17.80;89.00;;;;;;4861887;29;20057;-85
2021/08/15 02:40:21;;;;;;;8.98;5.50;;;17.80;89.50;;;;;;4862220;29;20059;-85
2021/08/15 02:42:50;;;;;;;9.90;5.43;;;17.70;89.70;;;;;;4862254;29;20438;-85
2021/08/15 02:45:18;;;;;;;9.55;5.63;;;17.70;89.20;;;;;;4861171;29;20102;-84
2021/08/15 02:47:44;;;;;;;9.07;5.50;;;17.70;89.80;;;;;;4861845;29;20063;-84
2021/08/15 02:50:11;;;;;;;10.82;5.30;;;17.70;90.00;;;;;;4862297;29;20053;-85
2021/08/15 02:52:37;;;;;;;9.82;5.43;;;17.70;89.30;;;;;;4861971;29;20117;-85
2021/08/15 02:55:04;;;;;;;9.85;5.47;;;17.70;89.80;;;;;;4862447;29;20049;-85
2021/08/15 02:57:30;;;;;;;9.57;5.15;;;17.70;90.10;;;;;;4862612;29;20053;-85
2021/08/15 02:59:55;;;;;;;9.55;5.25;;;17.60;89.50;;;;;;4861878;29;20050;-85
2021/08/15 03:02:23;;;;;;;9.50;5.15;;;17.60;89.70;;;;;;4862518;29;20057;-85
2021/08/15 03:04:49;;;;;;;10.00;5.43;;;17.60;89.60;;;;;;4862016;29;20050;-86
2021/08/15 03:07:16;;;;;;;9.15;5.07;;;17.60;90.00;;;;;;4861272;29;20565;-84
2021/08/15 03:09:43;;;;;;;10.18;5.45;;;17.60;90.30;;;;;;4862460;29;20108;-85
2021/08/15 03:12:09;;;;;;;9.68;5.40;;;17.60;90.30;;;;;;4862644;29;20147;-84
2021/08/15 03:14:37;;;;;;;8.48;5.10;;;17.50;90.00;;;;;;4861450;29;20137;-85
2021/08/15 03:17:06;;;;;;;9.55;5.25;;;17.50;90.10;;;;;;4862528;29;20384;-85
2021/08/15 03:19:33;;;;;;;8.90;5.35;;;17.50;90.20;;;;;;4862221;29;20501;-85
2021/08/15 03:21:59;;;;;;;9.07;5.30;;;17.50;90.50;;;;;;4861876;29;20109;-84
2021/08/15 03:24:24;;;;;;;9.48;5.30;;;17.50;90.60;;;;;;4862204;29;20474;-84
2021/08/15 03:26:51;;;;;;;9.10;5.40;;;17.50;90.70;;;;;;4861526;29;20065;-84
2021/08/15 03:29:17;;;;;;;8.93;5.10;;;17.50;90.70;;;;;;4861405;29;20136;-84
2021/08/15 03:31:44;;;;;;;9.02;5.30;;;17.50;90.60;;;;;;4862199;29;20054;-84
2021/08/15 03:34:12;;;;;;;8.20;5.00;;;17.40;90.50;;;;;;4861551;29;20089;-85
2021/08/15 03:36:38;;;;;;;8.70;5.10;;;17.50;90.80;;;;;;4862486;29;20060;-84
2021/08/15 03:39:05;;;;;;;9.95;5.03;;;17.50;90.70;;;;;;4862469;29;20061;-85
2021/08/15 03:41:30;;;;;;;10.50;5.10;;;17.40;90.60;;;;;;4861592;29;20124;-84
2021/08/15 03:43:56;;;;;;;9.98;5.03;;;17.50;90.70;;;;;;4861985;29;20562;-85
2021/08/15 03:46:22;;;;;;;8.00;4.93;;;17.50;90.80;;;;;;4861955;29;20054;-84
2021/08/15 03:48:48;;;;;;;8.35;5.10;;;17.50;90.60;;;;;;4860993;29;20053;-86
2021/08/15 03:51:14;;;;;;;8.90;5.00;;;17.40;90.70;;;;;;4862208;29;20083;-85
2021/08/15 03:53:43;;;;;;;10.23;5.40;;;17.50;90.80;;;;;;4862152;29;20057;-85
2021/08/15 03:56:09;;;;;;;9.88;5.25;;;17.40;90.50;;;;;;4861461;29;20575;-85
2021/08/15 03:58:37;;;;;;;8.00;4.93;;;17.40;90.60;;;;;;4861435;29;20053;-84
2021/08/15 04:01:03;;;;;;;8.57;4.88;;;17.40;90.70;;;;;;4861721;29;20049;-85
2021/08/15 04:03:29;;;;;;;8.00;4.97;;;17.40;90.30;;;;;;4860500;29;20060;-85
2021/08/15 04:05:56;;;;;;;7.55;4.30;;;17.40;90.50;;;;;;4861307;29;20460;-85
2021/08/15 04:08:23;;;;;;;8.00;4.68;;;17.40;90.40;;;;;;4861360;29;20057;-85
2021/08/15 04:10:49;;;;;;;8.13;4.72;;;17.30;90.30;;;;;;4862420;29;20061;-85
2021/08/15 04:13:15;;;;;;;6.63;4.25;;;17.30;90.50;;;;;;4865180;29;20060;-85
2021/08/15 04:15:41;;;;;;;9.57;4.68;;;17.30;90.30;;;;;;4865230;29;20056;-85
2021/08/15 04:18:06;;;;;;;9.30;5.22;;;17.30;90.20;;;;;;4864928;29;20049;-85
2021/08/15 04:20:32;;;;;;;7.97;4.90;;;17.30;90.30;;;;;;4865678;29;20141;-85
2021/08/15 04:22:58;;;;;;;8.40;4.63;;;17.30;90.40;;;;;;4864414;29;20137;-85
2021/08/15 04:25:23;;;;;;;7.30;4.45;;;17.30;90.60;;;;;;4863623;29;20441;-84
2021/08/15 04:27:49;;;;;;;8.70;4.90;;;17.30;90.70;;;;;;4864329;29;20058;-85
2021/08/15 04:30:15;;;;;;;8.93;4.78;;;17.20;90.70;;;;;;4865266;29;20110;-85
2021/08/15 04:32:40;;;;;;;10.20;5.03;;;17.20;90.90;;;;;;4865354;29;20125;-85
2021/08/15 04:35:07;;;;;;;7.70;4.40;;;17.20;90.40;;;;;;4865669;29;20487;-85
2021/08/15 04:37:33;;;;;;;9.25;4.90;;;17.20;90.50;;;;;;4863603;29;20054;-85
2021/08/15 04:39:58;;;;;;;8.02;4.70;;;17.20;90.50;;;;;;4864599;29;20049;-84
2021/08/15 04:42:24;;;;;;;7.63;4.80;;;17.20;90.60;;;;;;4864402;29;20065;-85
2021/08/15 04:44:54;;;;;;;8.05;4.55;;;17.20;90.60;;;;;;4863447;29;20141;-84
2021/08/15 04:47:21;;;;;;;7.65;4.32;;;17.20;90.70;;;;;;4863980;29;20060;-84
2021/08/15 04:49:51;;;;;;;7.85;4.95;;;17.10;90.60;;;;;;4863922;29;20498;-83
2021/08/15 04:52:16;;;;;;;7.68;4.53;;;17.10;90.70;;;;;;4863182;29;20046;-84
2021/08/15 04:54:42;;;;;;;8.85;4.95;;;17.10;90.80;;;;;;4863981;29;20049;-84
2021/08/15 04:57:07;;;;;;;8.20;4.70;;;17.10;90.80;;;;;;4863585;29;20050;-84
2021/08/15 04:59:33;;;;;;;8.05;4.43;;;17.10;90.80;;;;;;4862911;29;20053;-84
2021/08/15 05:02:01;;;;;;;8.13;4.97;;;17.10;90.70;;;;;;4863878;29;20064;-84
2021/08/15 05:04:30;;;;;;;8.48;4.63;;;17.10;90.80;;;;;;4863843;29;20079;-85
2021/08/15 05:06:55;;;;;;;8.45;4.43;;;17.10;90.80;;;;;;4862852;29;20049;-85
2021/08/15 05:09:21;;;;;;;8.65;4.90;;;17.10;90.90;;;;;;4863602;29;20102;-84
2021/08/15 05:11:48;;;;;;;6.95;4.40;;;17.10;90.90;;;;;;4863655;29;20110;-84
2021/08/15 05:14:14;;;;;;;8.02;4.72;;;17.10;90.90;;;;;;4862806;29;20507;-85
2021/08/15 05:16:40;;;;;;;8.90;4.65;;;17.10;90.80;;;;;;4863591;29;20054;-84
2021/08/15 05:19:06;;;;;;;8.10;4.57;;;17.10;90.80;;;;;;4863555;29;20050;-84
2021/08/15 05:21:31;;;;;;;8.75;4.75;;;17.10;90.80;;;;;;4862508;29;20053;-84
2021/08/15 05:23:58;;;;;;;9.18;4.63;;;17.10;91.30;;;;;;4863326;29;20053;-84
2021/08/15 05:26:24;;;;;;;7.93;4.60;;;17.10;90.70;;;;;;4863253;29;20065;-85
2021/08/15 05:28:50;;;;;;;7.32;4.32;;;17.10;90.80;;;;;;4862881;29;20100;-86
2021/08/15 05:31:16;;;;;;;6.70;4.20;;;17.10;90.70;;;;;;4864122;29;20499;-85
2021/08/15 05:33:41;;;;;;;9.23;4.50;;;17.10;90.90;;;;;;4863667;29;20105;-85
2021/08/15 05:36:08;;;;;;;8.13;4.57;;;17.10;90.80;;;;;;4863805;29;20499;-85
2021/08/15 05:38:34;;;;;;;13.15;4.57;;;17.00;90.60;;;;;;4863956;29;20108;-85
2021/08/15 05:41:00;;;;;;;8.40;4.32;;;17.00;90.50;;;;;;4862863;29;20561;-85
2021/08/15 05:43:25;;;;;;;7.43;4.47;;;17.00;90.70;;;;;;4863777;29;20054;-85
2021/08/15 05:45:51;;;;;;;7.10;4.22;;;17.00;90.70;;;;;;4863759;29;20049;-85
2021/08/15 05:48:18;;;;;;;8.55;4.63;;;17.00;90.80;;;;;;4862535;29;20064;-85
2021/08/15 05:50:43;;;;;;;8.77;4.50;;;17.00;90.70;;;;;;4863896;29;20069;-85
2021/08/15 05:53:09;;;;;;;8.20;4.55;;;17.00;90.60;;;;;;4863487;29;20140;-85
2021/08/15 05:55:35;;;;;;;7.30;4.18;;;17.00;90.60;;;;;;4862472;29;20053;-85
2021/08/15 05:58:00;;;;;;;8.70;5.43;;;17.00;90.50;;;;;;4863444;29;20050;-85
2021/08/15 06:00:26;;;;;;;8.32;4.75;;;17.00;90.50;;;;;;4863413;29;20069;-85
2021/08/15 06:02:52;;;;;;;9.85;5.15;;;17.00;90.30;;;;;;4862254;29;20053;-85
2021/08/15 06:05:17;;;;;;;7.88;4.57;;;17.10;90.40;;;;;;4862696;29;20060;-85
2021/08/15 06:07:43;;;;;;;9.55;5.30;;;17.10;90.50;;;;;;4862341;29;20494;-85
2021/08/15 06:10:09;;;;;;;8.65;5.25;;;17.10;90.50;;;;;;4861887;29;20109;-86
2021/08/15 06:12:36;;;;;;;7.97;4.63;;;17.10;90.70;;;;;;4862680;29;20054;-85
2021/08/15 06:15:03;;;;;;;8.02;4.25;;;17.10;90.70;;;;;;4862509;29;20061;-85
2021/08/15 06:17:29;;;;;;;9.18;5.63;;;17.10;90.80;;;;;;4861526;29;20407;-86
2021/08/15 06:19:54;;;;;;;10.23;4.72;;;17.10;91.10;;;;;;4862250;29;20054;-85
2021/08/15 06:22:20;;;;;;;12.05;6.10;;;17.20;91.10;;;;;;4862115;29;20049;-85
2021/08/15 06:24:46;;;;;;;9.13;5.03;;;17.20;91.30;;;;;;4861538;29;20049;-84
2021/08/15 06:27:12;;;;;;;8.68;4.20;;;17.20;91.30;;;;;;4861894;29;20065;-85
2021/08/15 06:29:38;;;;;;;10.23;5.78;;;17.30;91.20;;;;;;4862251;29;20057;-85
2021/08/15 06:32:04;;;;;;;10.05;5.60;;;17.30;91.40;;;;;;4861265;29;20498;-85
2021/08/15 06:34:29;;;;;;;8.60;5.40;;;17.30;91.40;;;;;;4861959;29;20054;-86
2021/08/15 06:36:55;;;;;;;10.60;6.07;;;17.40;91.50;;;;;;4862062;29;20475;-86
2021/08/15 06:39:21;;;;;;;10.63;5.93;;;17.40;91.70;;;;;;4861789;29;20058;-85
2021/08/15 06:41:46;;;;;;;10.55;5.40;;;17.50;91.70;;;;;;4862023;29;20049;-86
2021/08/15 06:44:12;;;;;;;11.68;6.53;;;17.60;91.60;;;;;;4861268;29;20050;-86
2021/08/15 06:46:38;;;;;;;9.50;5.47;;;17.60;91.60;;;;;;4862100;29;20049;-85
2021/08/15 06:49:03;;;;;;;10.63;6.07;;;17.70;91.20;;;;;;4860874;29;20411;-85
2021/08/15 06:51:29;;;;;;;12.40;6.20;;;17.80;91.30;;;;;;4860191;29;20128;-86
2021/08/15 06:53:54;;;;;;;11.90;6.40;;;17.80;91.40;;;;;;4861610;29;20505;-86
2021/08/15 06:56:20;;;;;;;11.88;6.30;;;17.90;91.40;;;;;;4861959;29;20060;-85
2021/08/15 06:58:46;;;;;;;12.15;6.70;;;17.90;91.80;;;;;;4860994;29;20053;-85
2021/08/15 07:01:12;;;;;;;7.68;4.85;;;18.10;92.00;;;;;;4861889;29;20073;-85
2021/08/15 07:03:38;;;;;;;13.27;6.45;;;18.10;91.50;;;;;;4862137;29;20057;-85
2021/08/15 07:06:04;;;;;;;11.70;5.88;;;18.20;91.60;;;;;;4861223;29;20506;-87
2021/08/15 07:08:29;;;;;;;10.85;6.20;;;18.40;91.50;;;;;;4862387;29;20064;-86
2021/08/15 07:10:55;;;;;;;12.10;6.10;;;18.50;91.50;;;;;;4862181;29;20077;-84
2021/08/15 07:13:24;;;;;;;10.90;5.53;;;18.60;91.50;;;;;;4861481;29;20080;-87
2021/08/15 07:15:51;;;;;;;10.52;5.35;;;18.70;91.40;;;;;;4862072;29;20046;-85
2021/08/15 07:18:18;;;;;;;13.50;5.85;;;18.80;91.10;;;;;;4862108;29;20054;-85
2021/08/15 07:20:44;;;;;;;9.85;5.32;;;18.90;91.00;;;;;;4861201;29;20049;-86
2021/08/15 07:23:10;;;;;;;15.38;5.88;;;18.90;90.80;;;;;;4862072;29;20053;-85
2021/08/15 07:25:36;;;;;;;11.40;5.70;;;19.00;90.80;;;;;;4861468;29;20109;-86
2021/08/15 07:28:01;;;;;;;9.38;5.65;;;19.00;90.70;;;;;;4861221;29;20106;-85
2021/08/15 07:30:28;;;;;;;11.55;5.93;;;19.10;90.80;;;;;;4861859;29;20136;-85
2021/08/15 07:32:58;;;;;;;12.00;5.90;;;19.10;90.70;;;;;;4861422;29;20421;-86
2021/08/15 07:35:25;;;;;;;13.90;6.55;;;19.20;90.80;;;;;;4860246;29;20057;-84
2021/08/15 07:37:51;;;;;;;11.32;5.82;;;19.20;90.80;;;;;;4861257;29;20053;-85
2021/08/15 07:40:17;;;;;;;11.10;5.95;;;19.20;90.80;;;;;;4860594;29;20045;-85
2021/08/15 07:42:43;;;;;;;10.43;5.65;;;19.30;91.00;;;;;;4861193;29;20524;-86
2021/08/15 07:45:09;;;;;;;10.57;5.53;;;19.30;91.20;;;;;;4863974;29;20056;-85
2021/08/15 07:47:35;;;;;;;12.15;5.97;;;19.40;91.00;;;;;;4864029;29;20537;-85
2021/08/15 07:50:02;;;;;;;11.52;5.57;;;19.50;91.00;;;;;;4864617;29;20132;-85
2021/08/15 07:52:28;;;;;;;10.73;5.55;;;19.60;90.80;;;;;;4864954;29;20057;-85
2021/08/15 07:54:53;;;;;;;10.68;5.60;;;19.70;90.60;;;;;;4864156;29;20072;-86
2021/08/15 07:57:20;;;;;;;12.27;5.40;;;19.80;90.60;;;;;;4864967;29;20105;-85
2021/08/15 07:59:46;;;;;;;11.45;5.63;;;19.90;90.40;;;;;;4864455;29;20084;-84
2021/08/15 08:02:12;;;;;;;11.73;5.30;;;20.00;90.30;;;;;;4863293;29;20080;-86
2021/08/15 08:04:38;;;;;;;10.90;5.45;;;20.10;90.10;;;;;;4863940;29;20395;-86
2021/08/15 08:07:05;;;;;;;10.85;5.15;;;20.20;90.10;;;;;;4863749;29;20065;-86
2021/08/15 08:09:31;;;;;;;10.27;4.88;;;20.30;89.80;;;;;;4863323;29;20057;-85
2021/08/15 08:11:57;;;;;;;11.32;4.47;;;20.40;89.30;;;;;;4863737;29;20153;-86
2021/08/15 08:14:23;;;;;;;9.68;4.90;;;20.50;89.10;;;;;;4863913;29;20399;-85
2021/08/15 08:16:49;;;;;;;12.27;4.97;;;20.60;88.50;;;;;;4862884;29;20086;-85
2021/08/15 08:19:15;;;;;;;19.83;5.20;;;20.60;88.10;;;;;;4863671;29;20073;-85
2021/08/15 08:21:40;;;;;;;10.23;5.43;;;20.70;87.80;;;;;;4863942;29;20057;-86
2021/08/15 08:24:08;;;;;;;13.27;5.03;;;20.80;88.00;;;;;;4862937;29;20463;-86
2021/08/15 08:26:34;;;;;;;12.77;5.35;;;20.90;87.70;;;;;;4863188;29;20053;-86
2021/08/15 08:29:00;;;;;;;9.70;4.88;;;20.90;87.80;;;;;;4863609;29;20080;-86
2021/08/15 08:31:27;;;;;;;12.80;5.07;;;21.00;87.80;;;;;;4862938;29;20491;-86
2021/08/15 08:33:53;;;;;;;10.75;4.85;;;21.10;87.90;;;;;;4864069;29;20053;-87
2021/08/15 08:36:20;;;;;;;15.43;5.45;;;21.20;87.20;;;;;;4863677;29;20050;-86
2021/08/15 08:38:45;;;;;;;8.88;4.82;;;21.30;86.90;;;;;;4862821;29;20057;-86
2021/08/15 08:41:14;;;;;;;14.95;5.57;;;21.30;87.20;;;;;;4863500;29;20049;-87
2021/08/15 08:43:41;;;;;;;11.88;5.63;;;21.50;86.90;;;;;;4862808;29;20053;-87
2021/08/15 08:46:09;;;;;;;15.25;5.95;;;21.60;86.40;;;;;;4863168;29;20057;-86
2021/08/15 08:48:35;;;;;;;12.38;5.60;;;21.60;85.90;;;;;;4863938;29;20088;-87
2021/08/15 08:51:01;;;;;;;10.60;5.28;;;21.70;85.70;;;;;;4863212;29;20069;-86
2021/08/15 08:53:27;;;;;;;13.23;5.15;;;21.80;85.00;;;;;;4864409;29;20060;-87
2021/08/15 08:55:53;;;;;;;11.38;5.45;;;21.90;84.20;;;;;;4863683;29;20053;-86
2021/08/15 08:58:19;;;;;;;11.77;5.38;;;22.00;84.10;;;;;;4863596;29;20510;-86
2021/08/15 09:00:46;;;;;;;11.02;5.22;;;22.00;83.90;;;;;;4864038;29;20448;-87
2021/08/15 09:03:13;;;;;;;11.98;5.45;;;22.10;83.20;;;;;;4863787;29;20098;-87
2021/08/15 09:05:39;;;;;;;13.00;5.03;;;22.10;83.10;;;;;;4863146;29;20050;-87
2021/08/15 09:08:05;;;;;;;12.88;5.47;;;22.20;83.20;;;;;;4864037;29;20093;-86
2021/08/15 09:10:40;;;;;;;12.73;5.75;;;22.30;82.40;;;;;;4864163;29;20128;-85
2021/08/15 09:13:09;;;;;;;10.45;4.90;;;22.30;82.00;;;;;;4863091;29;20061;-87
2021/08/15 09:15:37;;;;;;;16.60;5.88;;;22.40;83.20;;;;;;4864096;29;20452;-87
2021/08/15 09:18:03;;;;;;;11.45;5.18;;;22.50;82.00;;;;;;4863828;29;20082;-87
2021/08/15 09:20:43;;;;;;;11.18;5.38;;;22.50;82.00;;;;;;4862578;29;20049;-85
2021/08/15 09:23:24;;;;;;;12.38;5.30;;;22.60;81.40;;;;;;4863530;29;20498;-87
2021/08/15 09:26:13;;;;;;;12.57;5.90;;;22.60;81.80;;;;;;4862444;29;20069;-87
2021/08/15 09:28:40;;;;;;;11.57;4.95;;;22.70;81.10;;;;;;4863407;29;20060;-87
2021/08/15 09:31:24;;;;;;;11.75;5.43;;;22.80;82.50;;;;;;4863246;29;20132;-87
2021/08/15 09:33:51;;;;;;;11.82;5.03;;;22.90;81.80;;;;;;4862776;29;20061;-88
2021/08/15 09:36:25;;;;;;;12.57;5.10;;;22.90;81.60;;;;;;4863666;29;20061;-87
2021/08/15 09:38:54;;;;;;;10.90;4.88;;;23.00;82.00;;;;;;4863662;29;20045;-88
2021/08/15 09:41:26;;;;;;;11.93;5.07;;;23.00;81.70;;;;;;4862500;29;20057;-87
2021/08/15 09:44:17;;;;;;;12.68;5.05;;;23.10;82.30;;;;;;4863349;29;20411;-87
2021/08/15 09:47:09;;;;;;;16.92;5.78;;;23.10;82.40;;;;;;4863365;29;20189;-88
2021/08/15 09:49:43;;;;;;;10.18;5.32;;;23.20;81.20;;;;;;4862887;29;20660;-86
2021/08/15 09:52:14;;;;;;;14.50;5.80;;;23.30;80.90;;;;;;4863233;29;20077;-87
2021/08/15 09:54:41;;;;;;;13.40;5.22;;;23.40;80.70;;;;;;4862311;29;20080;-87
2021/08/15 09:57:09;;;;;;;12.43;5.22;;;23.50;79.40;;;;;;4862994;29;20049;-87
2021/08/15 09:59:37;;;;;;;11.73;5.47;;;23.60;79.70;;;;;;4862920;29;20517;-88
2021/08/15 10:02:05;;;;;;;14.48;5.13;;;23.70;78.90;;;;;;4862121;29;20075;-88
2021/08/15 10:04:32;;;;;;;14.45;5.35;;;23.70;79.10;;;;;;4863075;29;20057;-87
2021/08/15 10:06:57;;;;;;;13.25;5.85;;;23.80;78.60;;;;;;4862200;29;20097;-87
2021/08/15 10:09:24;;;;;;;12.45;5.20;;;23.90;78.80;;;;;;4861233;29;20053;-86
2021/08/15 10:11:51;;;;;;;13.30;5.43;;;24.00;78.50;;;;;;4862472;29;20495;-87
2021/08/15 10:14:18;;;;;;;15.43;5.40;;;24.00;78.30;;;;;;4863209;29;20440;-87
2021/08/15 10:16:53;;;;;;;11.77;5.20;;;24.10;78.60;;;;;;4862315;29;20061;-87
2021/08/15 10:19:39;;;;;;;12.82;5.85;;;24.20;79.00;;;;;;4862835;29;20384;-86
2021/08/15 10:22:05;;;;;;;12.48;5.97;;;24.20;76.90;;;;;;4862122;29;20064;-88
2021/08/15 10:24:48;;;;;;;14.52;5.95;;;24.30;76.70;;;;;;4862964;29;20054;-87
2021/08/15 10:27:37;;;;;;;;;;;24.30;76.20;;;;;;4863025;29;20057;-87
2021/08/15 10:30:02;;;;;;;13.15;6.03;;;24.30;75.40;;;;;;4861647;29;19947;-87
2021/08/15 10:32:28;;;;;;;14.18;6.05;;;24.30;76.00;;;;;;4862813;29;20491;-87
2021/08/15 10:34:54;;;;;;;12.07;6.07;;;24.40;76.90;;;;;;4862814;29;20110;-87
2021/08/15 10:37:23;;;;;;;11.15;5.32;;;24.50;75.50;;;;;;4861894;29;20061;-86
2021/08/15 10:39:49;;;;;;;13.23;5.63;;;24.50;74.70;;;;;;4862599;29;20144;-86
2021/08/15 10:42:47;;;;;;;12.45;5.18;;;24.60;75.00;;;;;;4862398;29;20053;-87
2021/08/15 10:45:19;;;;;;;13.50;5.35;;;24.60;74.40;;;;;;4862113;29;20072;-87
2021/08/15 10:48:04;;;;;;;11.35;4.97;;;24.60;73.50;;;;;;4862207;29;20057;-88
2021/08/15 10:50:47;;;;;;;12.77;4.82;;;24.60;72.80;;;;;;4861501;29;20104;-86
2021/08/15 10:53:31;;;;;;;11.48;5.07;;;24.60;73.30;;;;;;4862352;29;20057;-87
2021/08/15 10:56:08;;;;;;;11.13;5.43;;;24.60;73.30;;;;;;4862043;29;20054;-86
2021/08/15 10:58:49;;;;;;;12.80;5.53;;;24.60;73.30;;;;;;4861494;29;20049;-87
2021/08/15 11:01:18;;;;;;;12.18;5.13;;;24.60;74.00;;;;;;4862218;29;20068;-86
2021/08/15 11:03:47;;;;;;;9.60;4.43;;;24.70;74.50;;;;;;4862029;29;20057;-85
2021/08/15 11:06:33;;;;;;;12.68;6.00;;;24.70;75.70;;;;;;4861207;29;20513;-86
2021/08/15 11:09:01;;;;;;;12.50;7.20;;;24.80;73.60;;;;;;4861958;29;20136;-87
2021/08/15 11:11:36;;;;;;;14.32;6.07;;;24.80;74.90;;;;;;4861048;29;20083;-87
2021/08/15 11:14:17;;;;;;;11.90;5.30;;;24.90;73.30;;;;;;4861937;29;20190;-86
2021/08/15 11:16:54;;;;;;;10.65;5.18;;;24.90;73.30;;;;;;4861584;29;20057;-87
2021/08/15 11:19:20;;;;;;;11.13;5.10;;;24.90;73.40;;;;;;4860669;29;20463;-87
2021/08/15 11:22:05;;;;;;;10.65;5.18;;;25.00;72.60;;;;;;4861968;29;20045;-85
2021/08/15 11:24:34;;;;;;;10.70;5.00;;;25.00;71.80;;;;;;4861491;29;20068;-85
2021/08/15 11:27:00;;;;;;;10.85;5.00;;;25.10;72.90;;;;;;4860539;29;20510;-87
2021/08/15 11:29:27;;;;;;;16.95;5.50;;;25.10;73.60;;;;;;4861926;29;20054;-86
2021/08/15 11:31:54;;;;;;;14.23;5.75;;;25.20;72.90;;;;;;4861745;29;20132;-87
2021/08/15 11:34:21;;;;;;;12.43;5.22;;;25.30;72.90;;;;;;4861055;29;20137;-84
2021/08/15 11:37:04;;;;;;;12.25;4.82;;;25.30;73.30;;;;;;4861677;29;20050;-85
2021/08/15 11:39:35;;;;;;;11.57;4.93;;;25.40;73.90;;;;;;4860879;29;20064;-84
2021/08/15 11:42:05;;;;;;;13.30;5.05;;;25.50;72.40;;;;;;4861372;29;20480;-86
2021/08/15 11:44:54;;;;;;;12.40;5.28;;;25.60;71.60;;;;;;4861719;29;20133;-87
2021/08/15 11:47:30;;;;;;;10.80;5.03;;;25.60;70.10;;;;;;4860865;29;20081;-87
2021/08/15 11:49:58;;;;;;;12.32;4.80;;;25.70;72.70;;;;;;4861744;29;20053;-85
2021/08/15 11:52:26;;;;;;;10.82;4.75;;;25.70;72.20;;;;;;4861494;29;20153;-86
2021/08/15 11:54:54;;;;;;;11.45;4.70;;;25.80;70.70;;;;;;4860712;29;20482;-86
2021/08/15 11:57:20;;;;;;;12.32;5.13;;;25.90;71.40;;;;;;4861743;29;20109;-85
2021/08/15 12:00:00;;;;;;;11.55;4.68;;;25.90;70.40;;;;;;4861375;29;20125;-86
2021/08/15 12:02:26;;;;;;;12.82;4.30;;;25.90;71.10;;;;;;4860817;29;20575;-86
2021/08/15 12:04:52;;;;;;;12.20;5.00;;;26.00;70.50;;;;;;4861562;29;20073;-84
2021/08/15 12:07:25;;;;;;;10.30;5.00;;;26.00;69.70;;;;;;4861536;29;20509;-85
2021/08/15 12:10:25;;;;;;;10.45;5.13;;;26.10;71.10;;;;;;4860648;29;20054;-85
2021/08/15 12:13:11;;;;;;;10.65;4.40;;;26.10;69.50;;;;;;4862190;29;20086;-85
2021/08/15 12:15:37;;;;;;;10.55;4.43;;;26.20;70.20;;;;;;4860679;29;20061;-84
2021/08/15 12:18:03;;;;;;;11.10;5.03;;;26.20;73.00;;;;;;4861364;29;20057;-85
2021/08/15 12:20:30;;;;;;;11.50;4.72;;;26.20;69.40;;;;;;4861621;29;20459;-84
2021/08/15 12:23:07;;;;;;;10.93;5.00;;;26.30;69.00;;;;;;4859670;29;20049;-84
2021/08/15 12:25:33;;;;;;;11.63;4.65;;;26.30;66.90;;;;;;4861049;29;20053;-85
2021/08/15 12:28:12;;;;;;;10.20;4.60;;;26.30;69.40;;;;;;4861290;29;20102;-86
2021/08/15 12:30:39;;;;;;;10.10;5.00;;;26.30;69.50;;;;;;4860761;29;20182;-85
2021/08/15 12:33:24;;;;;;;11.00;5.05;;;26.40;70.40;;;;;;4864485;29;20137;-86
2021/08/15 12:35:50;;;;;;;12.32;4.82;;;26.40;68.70;;;;;;4863671;29;20058;-86
2021/08/15 12:38:30;;;;;;;10.80;4.88;;;26.50;69.30;;;;;;4864494;29;20050;-85
2021/08/15 12:41:16;;;;;;;12.27;4.85;;;26.60;71.30;;;;;;4864290;29;20136;-84
2021/08/15 12:43:41;;;;;;;11.82;5.00;;;26.60;70.70;;;;;;4863119;29;20076;-86
2021/08/15 12:46:22;;;;;;;11.60;4.82;;;26.70;70.10;;;;;;4864314;29;20483;-85